Acampo, California
Current Conditions -  °F | °C
As of 1:55 AM on Thursday 27 Nov 2014 (Local Time) from KSCK Reporting Station
Haze Haze  
Wind Chill: 44°   Ceiling: Unl
Heat Index: 44°   Visibility: 4mi
Dew Point: 43°   Wind: 0mph
Humidity: 96%   Direction: NA
Pressure: 30.2"   Gusts: NA
Location:  38.17°N, 121.28°W
Report Text: KSCK 270955Z AUTO 00000KT 4SM BR CLR 07/06 A3020 RMK AO2 SLP226 T00670061
Loading
Personal Weather Stations






























Interactive Weather Map New forecast layout! Learn more

10-Day Weather Forecast

Advertisements
Track Severe Weather on mobile